Other Surface Observations
Issued by NWS Great Falls, MT

Home | Current Version | Previous Version | Text Only | Print | Product List | Glossary On
Versions: 1 2 3 4 5 6 7 8 9 10 11 12 13 14 15 16 17 18 19 20 21 22 23 24 25 26 27 28 29 30 31 32 33 34 35 36 37 38 39 40 41 42 43 44 45 46 47 48 49 50
087
SXUS55 KTFX 241441
OSOTFX

AREA AWOS OBSERVATIONS
NATIONAL WEATHER SERVICE GREAT FALLS MT
0741 AM MST Sat Feb 24 2018

METAR K6S0 241440Z AUTO 26028G35KT 6SM HZ FEW023 BKN028 OVC035 M06/M12 A2975 RMK A01
METAR K6S8 241435Z AUTO 24011KT 10SM M12/M17 A2979 RMK A01
METAR K7S6 241440Z AUTO 14009KT 10SM M10/M14 A2972 RMK A01
METAR K7S0 241435Z AUTO 00000KT 10SM M07/M10 A2987 RMK A01



USA.gov is the U.S. government's official web portal to all federal, state and local government web resources and services.